createdAt,value
2022-12-11T00:04:52.604Z,82.22
2022-12-11T00:11:15.621Z,82.4
2022-12-11T00:17:35.595Z,81.99
2022-12-11T00:23:58.604Z,82.24
2022-12-11T00:30:18.639Z,81.66
2022-12-11T00:36:41.584Z,81.86
2022-12-11T00:43:01.603Z,81.33
2022-12-11T00:49:24.545Z,81.97
2022-12-11T00:55:44.685Z,82.11
2022-12-11T01:02:07.600Z,81.3
2022-12-11T01:08:27.620Z,81.43
2022-12-11T01:14:50.704Z,81.74
2022-12-11T01:21:10.604Z,81.7
2022-12-11T01:27:33.556Z,80.89
2022-12-11T01:33:53.635Z,80.92
2022-12-11T01:40:16.645Z,81.67
2022-12-11T01:46:36.706Z,81.12
2022-12-11T01:52:59.617Z,81.64
2022-12-11T01:59:19.624Z,81.91
2022-12-11T02:05:42.662Z,82.53
2022-12-11T02:12:02.646Z,82.46
2022-12-11T02:18:25.623Z,82.5
2022-12-11T02:24:45.737Z,82.64
2022-12-11T02:31:08.642Z,82.71
2022-12-11T02:37:28.579Z,83.04
2022-12-11T02:43:51.725Z,82.68
2022-12-11T02:50:11.661Z,83.28
2022-12-11T02:56:34.548Z,83.29
2022-12-11T03:02:54.580Z,83.71
2022-12-11T03:09:17.625Z,83.34
2022-12-11T03:15:37.628Z,83.14
2022-12-11T03:22:00.570Z,83.52
2022-12-11T03:28:20.638Z,83.66
2022-12-11T03:34:43.645Z,84.05
2022-12-11T03:41:03.636Z,84.43
2022-12-11T03:47:26.606Z,84.21
2022-12-11T03:53:46.652Z,83.71
2022-12-11T04:00:09.576Z,84.23
2022-12-11T04:22:36.616Z,85.52
2022-12-11T04:28:59.585Z,85.31
2022-12-11T04:35:19.593Z,85.25
2022-12-11T04:41:42.621Z,85.07
2022-12-11T04:48:02.571Z,84.94
2022-12-11T04:54:25.648Z,84.76
2022-12-11T05:00:45.627Z,85
2022-12-11T05:07:08.544Z,84.32
2022-12-11T05:13:28.621Z,84.09
2022-12-11T05:19:51.607Z,84.31
2022-12-11T05:26:11.557Z,84.53
2022-12-11T05:32:34.622Z,84.86
2022-12-11T05:38:54.591Z,84.76
2022-12-11T05:45:17.576Z,85.2
2022-12-11T05:51:37.586Z,84.7
2022-12-11T05:58:00.635Z,85.01
2022-12-11T06:04:20.598Z,84.43
2022-12-11T06:10:43.668Z,84.76
2022-12-11T06:17:03.791Z,84.96
2022-12-11T06:23:26.563Z,85.1
2022-12-11T06:29:46.563Z,84.98
2022-12-11T06:36:09.731Z,85.27
2022-12-11T06:42:29.608Z,85.5
2022-12-11T06:48:52.591Z,85.71
2022-12-11T06:55:12.883Z,85.57
2022-12-11T07:01:35.597Z,85.37
2022-12-11T07:07:55.727Z,85.19
2022-12-11T07:14:18.679Z,84.85
2022-12-11T07:20:38.600Z,84.16
2022-12-11T07:27:01.635Z,84.72
2022-12-11T07:33:21.653Z,85.28
2022-12-11T07:39:44.676Z,84.75
2022-12-11T07:46:04.669Z,84.95
2022-12-11T07:52:27.654Z,84.79
2022-12-11T07:58:47.621Z,85.1
2022-12-11T08:05:11.040Z,84.78
2022-12-11T08:11:30.710Z,84.78
2022-12-11T08:17:53.597Z,85.17
2022-12-11T08:24:13.557Z,84.78
2022-12-11T08:30:36.687Z,84.92
2022-12-11T08:36:56.593Z,85.95
2022-12-11T08:43:19.616Z,85.82
2022-12-11T08:49:39.577Z,85.7
2022-12-11T08:56:02.584Z,85.6
2022-12-11T09:02:22.916Z,84.76
2022-12-11T09:26:05.576Z,84.6
2022-12-11T09:32:28.563Z,84.25
2022-12-11T09:38:48.621Z,84.26
2022-12-11T09:45:11.943Z,84.54
2022-12-11T09:51:31.711Z,84.1
2022-12-11T09:57:54.602Z,83.94
2022-12-11T10:04:14.629Z,83.62
2022-12-11T10:10:37.577Z,83.39
2022-12-11T10:16:57.628Z,83.35
2022-12-11T10:23:20.599Z,83.15
2022-12-11T10:29:40.630Z,82.71
2022-12-11T10:36:03.571Z,82.23
2022-12-11T10:42:23.796Z,81.9
2022-12-11T10:48:46.587Z,81.71
2022-12-11T10:55:06.594Z,80.77
2022-12-11T11:01:29.642Z,79.57
2022-12-11T11:07:49.630Z,79.27
2022-12-11T11:14:12.617Z,79.74
2022-12-11T11:20:32.585Z,79.55
2022-12-11T11:27:12.568Z,79.11
2022-12-11T11:33:15.586Z,78.82
2022-12-11T11:39:38.590Z,78.6
2022-12-11T11:45:58.684Z,78.25
2022-12-11T11:52:21.553Z,79.43
2022-12-11T11:58:41.642Z,79.43
2022-12-11T12:05:04.711Z,77.86
2022-12-11T12:11:24.560Z,76.92
2022-12-11T12:17:51.959Z,77.21
2022-12-11T12:24:07.612Z,77.81
2022-12-11T12:30:30.770Z,77.32
2022-12-11T12:36:50.848Z,77.88
2022-12-11T12:43:13.607Z,77.6
2022-12-11T12:49:33.654Z,78.5
2022-12-11T12:55:56.582Z,78.46
2022-12-11T13:02:16.680Z,78.98
2022-12-11T13:08:39.595Z,78.35
2022-12-11T13:14:59.645Z,78.76
2022-12-11T13:21:22.661Z,77.54
2022-12-11T13:27:42.559Z,77.61
2022-12-11T13:34:05.662Z,78.03
2022-12-11T13:40:25.639Z,77.73
2022-12-11T13:46:48.649Z,77.56
2022-12-11T13:53:08.607Z,77.34
2022-12-11T13:59:31.639Z,77.79
2022-12-11T14:05:51.622Z,77.88
2022-12-11T14:12:14.663Z,78.57
2022-12-11T14:28:22.027Z,78.67
2022-12-11T14:34:41.597Z,78.24
2022-12-11T14:41:04.626Z,78.08
2022-12-11T14:47:24.602Z,78.34
2022-12-11T14:53:47.554Z,78.88
2022-12-11T15:00:07.740Z,78.83
2022-12-11T15:06:30.624Z,79.2
2022-12-11T15:12:50.563Z,79.86
2022-12-11T15:19:13.686Z,79.93
2022-12-11T15:25:33.596Z,80.07
2022-12-11T15:31:56.577Z,80.16
2022-12-11T15:38:16.561Z,80.86
2022-12-11T15:44:39.690Z,80.41
2022-12-11T15:50:59.665Z,81.1
2022-12-11T15:57:23.299Z,81.07
2022-12-11T16:03:43.607Z,81.18
2022-12-11T16:10:06.579Z,81.46
2022-12-11T16:16:26.935Z,81.06
2022-12-11T16:22:49.628Z,81.54
2022-12-11T16:29:09.558Z,81.44
2022-12-11T16:35:32.629Z,82.08
2022-12-11T16:41:52.678Z,82.2
2022-12-11T16:48:15.924Z,82.13
2022-12-11T16:54:36.634Z,82.26
2022-12-11T17:00:59.597Z,82.49
2022-12-11T17:07:19.622Z,82.49
2022-12-11T17:13:42.571Z,82.09
2022-12-11T17:20:02.767Z,82.37
2022-12-11T17:26:25.602Z,82.44
2022-12-11T17:32:46.655Z,82.46
2022-12-11T17:39:09.850Z,82.66
2022-12-11T17:45:29.559Z,82.22
2022-12-11T17:51:52.547Z,82.23
2022-12-11T17:58:18.718Z,82.56
2022-12-11T18:04:35.590Z,82.81
2022-12-11T18:10:55.586Z,82.54
2022-12-11T18:17:18.613Z,82.76
2022-12-11T18:23:38.649Z,82.49
2022-12-11T18:30:01.810Z,82.54
2022-12-11T18:36:21.588Z,83.18
2022-12-11T18:42:44.613Z,83.49
2022-12-11T18:49:04.569Z,83.25
2022-12-11T18:55:27.579Z,83.34
2022-12-11T19:01:47.671Z,82.8
2022-12-11T19:08:10.643Z,82.86
2022-12-11T19:14:30.703Z,82.61
2022-12-11T19:32:00.089Z,82.94
2022-12-11T19:38:19.575Z,82.89
2022-12-11T19:44:42.577Z,82.41
2022-12-11T19:51:02.625Z,82.54
2022-12-11T19:57:25.675Z,82.88
2022-12-11T20:03:45.649Z,82.93
2022-12-11T20:10:08.687Z,83.07
2022-12-11T20:16:53.643Z,83.19
2022-12-11T20:22:51.549Z,82.79
2022-12-11T20:29:17.602Z,82.78
2022-12-11T20:35:34.617Z,82.91
2022-12-11T20:41:54.586Z,82.55
2022-12-11T20:48:17.564Z,83.06
2022-12-11T20:54:37.643Z,82.89
2022-12-11T21:01:00.649Z,82.79
2022-12-11T21:07:20.660Z,83
2022-12-11T21:13:43.626Z,83
2022-12-11T21:20:03.556Z,83.01
2022-12-11T21:26:26.581Z,83.53
2022-12-11T21:32:46.637Z,83.61
2022-12-11T21:39:09.584Z,83.58
2022-12-11T21:45:59.662Z,83.25
2022-12-11T21:51:52.586Z,83.75
2022-12-11T21:58:18.649Z,83.91
2022-12-11T22:04:35.796Z,83.41
2022-12-11T22:10:55.587Z,83.48
2022-12-11T22:17:18.650Z,83.94
2022-12-11T22:23:38.717Z,83.87
2022-12-11T22:30:01.600Z,83.68
2022-12-11T22:36:21.616Z,83.84
2022-12-11T22:42:44.605Z,83.91
2022-12-11T22:49:04.621Z,83.89
2022-12-11T22:55:27.558Z,84.02
2022-12-11T23:19:41.599Z,83.99
2022-12-11T23:26:01.554Z,84.46
2022-12-11T23:32:24.660Z,84.3
2022-12-11T23:38:47.226Z,83.81
2022-12-11T23:45:07.712Z,83.51
2022-12-11T23:51:27.553Z,83.77
2022-12-11T23:57:50.662Z,84.08
